createdAt,value
2022-12-20T00:00:52.935Z,100675.91
2022-12-20T00:03:20.767Z,100671.53
2022-12-20T00:05:47.848Z,100673.28
2022-12-20T00:08:15.087Z,100675.91
2022-12-20T00:10:43.780Z,100665.44
2022-12-20T00:13:12.865Z,100661.94
2022-12-20T00:15:39.471Z,100660.22
2022-12-20T00:18:06.314Z,100650.59
2022-12-20T00:20:33.260Z,100654.97
2022-12-20T00:22:59.951Z,100652.38
2022-12-20T00:25:26.662Z,100648.00
2022-12-20T00:27:53.405Z,100637.53
2022-12-20T00:30:20.376Z,100641.06
2022-12-20T00:32:47.031Z,100634.03
2022-12-20T00:35:13.930Z,100636.66
2022-12-20T00:37:40.760Z,100629.72
2022-12-20T00:40:08.159Z,100638.44
2022-12-20T00:42:34.880Z,100639.28
2022-12-20T00:45:01.547Z,100649.78
2022-12-20T00:47:28.237Z,100644.53
2022-12-20T00:49:54.872Z,100641.94
2022-12-20T00:52:21.503Z,100634.03
2022-12-20T00:54:48.116Z,100627.09
2022-12-20T00:57:14.745Z,100626.22
2022-12-20T00:59:41.413Z,100623.63
2022-12-20T01:02:08.295Z,100620.13
2022-12-20T01:04:37.948Z,100622.78
2022-12-20T01:07:04.694Z,100621.88
2022-12-20T01:09:31.870Z,100618.38
2022-12-20T01:11:58.594Z,100621.88
2022-12-20T01:14:25.363Z,100614.03
2022-12-20T01:16:52.162Z,100614.03
2022-12-20T01:19:19.943Z,100606.16
2022-12-20T01:21:47.089Z,100599.19
2022-12-20T01:24:18.820Z,100605.28
2022-12-20T01:26:46.035Z,100594.84
2022-12-20T01:29:14.280Z,100587.00
2022-12-20T01:31:41.211Z,100587.00
2022-12-20T01:34:07.933Z,100583.50
2022-12-20T01:36:38.169Z,100580.88
2022-12-20T01:39:11.676Z,100576.53
2022-12-20T01:41:38.952Z,100576.56
2022-12-20T01:44:27.003Z,100567.81
2022-12-20T01:46:54.851Z,100566.97
2022-12-20T01:49:26.186Z,100562.59
2022-12-20T01:52:23.263Z,100569.59
2022-12-20T01:55:13.872Z,100556.50
2022-12-20T01:57:46.720Z,100553.88
2022-12-20T02:00:14.138Z,100555.63
2022-12-20T02:02:42.465Z,100546.00
2022-12-20T02:05:09.710Z,100556.50
2022-12-20T02:07:38.857Z,100559.13
2022-12-20T02:10:07.681Z,100547.78
2022-12-20T02:12:46.193Z,100549.50
2022-12-20T02:15:23.965Z,100547.78
2022-12-20T02:18:29.726Z,100538.19
2022-12-20T02:21:08.688Z,100529.47
2022-12-20T02:23:43.046Z,100528.63
2022-12-20T02:26:15.981Z,100524.28
2022-12-20T02:29:04.208Z,100515.56
2022-12-20T02:31:39.293Z,100511.19
2022-12-20T02:34:09.181Z,100514.69
2022-12-20T02:36:35.844Z,100514.69
2022-12-20T02:39:02.589Z,100509.47
2022-12-20T02:41:42.348Z,100503.38
2022-12-20T02:44:34.000Z,100504.22
2022-12-20T02:47:05.388Z,100505.97
2022-12-20T02:49:38.715Z,100505.97
2022-12-20T02:52:06.697Z,100493.78
2022-12-20T02:54:33.746Z,100489.47
2022-12-20T02:57:11.621Z,100494.66
2022-12-20T02:59:45.231Z,100489.44
2022-12-20T03:02:15.309Z,100481.59
2022-12-20T03:04:43.552Z,100480.72
2022-12-20T03:07:13.308Z,100477.22
2022-12-20T03:09:42.368Z,100482.47
2022-12-20T03:12:11.823Z,100478.09
2022-12-20T03:14:39.571Z,100474.59
2022-12-20T03:17:07.410Z,100471.16
2022-12-20T03:19:34.742Z,100471.16
2022-12-20T03:22:01.556Z,100463.31
2022-12-20T03:24:28.294Z,100466.81
2022-12-20T03:26:55.040Z,100463.34
2022-12-20T03:29:21.711Z,100465.94
2022-12-20T03:31:48.326Z,100464.22
2022-12-20T03:34:15.488Z,100464.22
2022-12-20T03:36:42.173Z,100468.59
2022-12-20T03:39:08.977Z,100464.22
2022-12-20T03:41:35.753Z,100469.47
2022-12-20T03:44:03.705Z,100465.09
2022-12-20T03:46:30.876Z,100464.22
2022-12-20T03:48:57.580Z,100461.59
2022-12-20T03:51:24.278Z,100452.91
2022-12-20T03:53:50.999Z,100450.28
2022-12-20T03:56:17.615Z,100454.63
2022-12-20T03:58:44.334Z,100447.69
2022-12-20T04:01:38.804Z,100438.97
2022-12-20T04:04:05.939Z,100436.31
2022-12-20T04:06:32.617Z,100439.81
2022-12-20T04:08:59.285Z,100436.34
2022-12-20T04:11:25.894Z,100431.09
2022-12-20T04:13:54.521Z,100431.97
2022-12-20T04:16:26.950Z,100428.50
2022-12-20T04:18:53.682Z,100421.53
2022-12-20T04:21:31.446Z,100419.78
2022-12-20T04:23:59.780Z,100416.28
2022-12-20T04:26:26.786Z,100416.31
2022-12-20T04:28:53.566Z,100416.31
2022-12-20T04:31:24.100Z,100418.91
2022-12-20T04:33:51.517Z,100401.47
2022-12-20T04:36:18.160Z,100402.34
2022-12-20T04:38:44.791Z,100391.91
2022-12-20T04:41:22.504Z,100386.69
2022-12-20T04:43:53.972Z,100393.63
2022-12-20T04:46:21.803Z,100387.53
2022-12-20T04:48:57.940Z,100384.94
2022-12-20T04:51:26.229Z,100381.44
2022-12-20T04:53:52.963Z,100373.59
2022-12-20T04:56:28.736Z,100372.72
2022-12-20T04:58:58.143Z,100371.00
2022-12-20T05:01:25.295Z,100384.06
2022-12-20T05:03:52.698Z,100379.72
2022-12-20T05:06:19.684Z,100379.72
2022-12-20T05:08:46.800Z,100368.38
2022-12-20T05:11:13.648Z,100370.13
2022-12-20T05:13:40.556Z,100372.69
2022-12-20T05:16:07.611Z,100376.22
2022-12-20T05:18:34.464Z,100381.44
2022-12-20T05:21:20.993Z,100376.22
2022-12-20T05:24:06.500Z,100384.06
2022-12-20T05:26:36.656Z,100381.44
2022-12-20T05:29:04.170Z,100383.16
2022-12-20T05:31:31.171Z,100384.06
2022-12-20T05:33:57.832Z,100379.69
2022-12-20T05:36:24.600Z,100374.44
2022-12-20T05:38:51.274Z,100372.69
2022-12-20T05:41:18.097Z,100377.06
2022-12-20T05:43:44.987Z,100381.38
2022-12-20T05:46:11.665Z,100376.16
2022-12-20T05:48:38.356Z,100384.00
2022-12-20T05:51:05.398Z,100380.53
2022-12-20T05:53:32.082Z,100380.50
2022-12-20T05:55:59.357Z,100380.50
2022-12-20T05:58:26.057Z,100370.88
2022-12-20T06:00:52.749Z,100370.03
2022-12-20T06:03:19.576Z,100369.13
2022-12-20T06:05:46.791Z,100370.03
2022-12-20T06:08:14.168Z,100358.66
2022-12-20T06:10:42.118Z,100363.88
2022-12-20T06:13:10.176Z,100363.03
2022-12-20T06:15:38.262Z,100362.16
2022-12-20T06:18:06.086Z,100372.63
2022-12-20T06:20:36.651Z,100367.38
2022-12-20T06:23:04.006Z,100363.91
2022-12-20T06:25:31.222Z,100363.03
2022-12-20T06:27:58.435Z,100363.03
2022-12-20T06:30:30.207Z,100361.28
2022-12-20T06:33:00.201Z,100356.06
2022-12-20T06:35:26.945Z,100355.19
2022-12-20T06:37:53.653Z,100353.44
2022-12-20T06:40:20.375Z,100352.56
2022-12-20T06:42:47.077Z,100349.03
2022-12-20T06:45:13.807Z,100344.72
2022-12-20T06:47:40.517Z,100337.72
2022-12-20T06:50:07.805Z,100337.72
2022-12-20T06:52:34.569Z,100345.56
2022-12-20T06:55:01.188Z,100339.47
2022-12-20T06:57:27.826Z,100330.75
2022-12-20T06:59:54.474Z,100332.50
2022-12-20T07:02:21.251Z,100335.97
2022-12-20T07:04:48.024Z,100332.47
2022-12-20T07:07:14.643Z,100335.09
2022-12-20T07:09:43.797Z,100335.09
2022-12-20T07:12:10.979Z,100335.06
2022-12-20T07:14:37.602Z,100327.22
2022-12-20T07:17:05.663Z,100328.94
2022-12-20T07:19:32.545Z,100328.94
2022-12-20T07:21:59.551Z,100330.69
2022-12-20T07:24:26.233Z,100324.59
2022-12-20T07:26:52.963Z,100333.28
2022-12-20T07:29:19.666Z,100328.91
2022-12-20T07:31:46.555Z,100337.63
2022-12-20T07:34:13.337Z,100330.66
2022-12-20T07:36:40.108Z,100333.25
2022-12-20T07:39:06.941Z,100322.78
2022-12-20T07:41:33.553Z,100325.41
2022-12-20T07:44:00.333Z,100316.69
2022-12-20T07:46:27.719Z,100328.91
2022-12-20T07:48:55.295Z,100325.41
2022-12-20T07:51:26.796Z,100313.22
2022-12-20T07:54:19.570Z,100309.72
2022-12-20T07:56:50.510Z,100323.69
2022-12-20T07:59:24.249Z,100314.09
2022-12-20T08:01:51.458Z,100326.28
2022-12-20T08:04:21.341Z,100316.69
2022-12-20T08:06:51.092Z,100304.50
2022-12-20T08:09:17.842Z,100321.06
2022-12-20T08:11:48.862Z,100325.44
2022-12-20T08:14:17.892Z,100318.41
2022-12-20T08:16:47.080Z,100328.03
2022-12-20T08:19:13.696Z,100314.88
2022-12-20T08:21:40.346Z,100320.97
2022-12-20T08:24:08.327Z,100316.63
2022-12-20T08:26:40.096Z,100309.59
2022-12-20T08:29:06.827Z,100308.72
2022-12-20T08:31:33.588Z,100310.44
2022-12-20T08:34:00.457Z,100313.91
2022-12-20T08:36:27.099Z,100306.03
2022-12-20T08:38:53.790Z,100309.53
2022-12-20T08:41:20.651Z,100302.56
2022-12-20T08:43:47.374Z,100301.69
2022-12-20T08:46:14.132Z,100293.84
2022-12-20T08:48:40.914Z,100295.56
2022-12-20T08:51:10.436Z,100289.44
2022-12-20T08:53:37.628Z,100290.28
2022-12-20T08:56:06.441Z,100281.56
2022-12-20T08:58:33.979Z,100289.38
2022-12-20T09:01:06.311Z,100286.75
2022-12-20T09:03:35.023Z,100279.78
2022-12-20T09:06:06.784Z,100289.38
2022-12-20T09:08:35.315Z,100292.88
2022-12-20T09:11:28.871Z,100275.41
2022-12-20T09:13:57.534Z,100280.63
2022-12-20T09:16:27.453Z,100280.59
2022-12-20T09:19:02.440Z,100267.50
2022-12-20T09:21:31.596Z,100263.13
2022-12-20T09:23:58.319Z,100257.91
2022-12-20T09:26:25.643Z,100261.34
2022-12-20T09:28:52.761Z,100265.69
2022-12-20T09:31:22.395Z,100262.16
2022-12-20T09:33:49.595Z,100263.94
2022-12-20T09:36:18.758Z,100274.34
2022-12-20T09:38:46.967Z,100280.44
2022-12-20T09:41:29.938Z,100282.16
2022-12-20T09:43:58.716Z,100281.31
2022-12-20T09:46:26.486Z,100284.75
2022-12-20T09:48:59.794Z,100279.50
2022-12-20T09:51:37.890Z,100282.97
2022-12-20T09:54:28.261Z,100278.59
2022-12-20T09:57:14.669Z,100264.63
2022-12-20T09:59:49.218Z,100272.47
2022-12-20T10:05:40.840Z,100268.09
2022-12-20T10:08:23.913Z,100256.72
2022-12-20T10:10:56.973Z,100261.06
2022-12-20T10:13:46.640Z,100254.06
2022-12-20T10:16:24.567Z,100253.16
2022-12-20T10:19:10.596Z,100252.25
2022-12-20T10:21:55.589Z,100252.22
2022-12-20T10:24:31.736Z,100241.69
2022-12-20T10:27:11.613Z,100239.97
2022-12-20T10:29:38.441Z,100228.59
2022-12-20T10:32:14.845Z,100229.41
2022-12-20T10:35:18.854Z,100236.38
2022-12-20T10:38:12.619Z,100232.88
2022-12-20T10:41:20.218Z,100243.34
2022-12-20T10:43:44.217Z,100233.72
2022-12-20T10:46:12.194Z,100230.22
2022-12-20T10:48:41.546Z,100239.81
2022-12-20T10:51:22.165Z,100242.41
2022-12-20T10:54:03.407Z,100230.16
2022-12-20T10:56:38.921Z,100231.00
2022-12-20T10:59:17.777Z,100219.63
2022-12-20T11:01:49.494Z,100221.38
2022-12-20T11:04:42.619Z,100217.84
2022-12-20T11:07:26.206Z,100215.22
2022-12-20T11:09:56.502Z,100219.53
2022-12-20T11:12:23.735Z,100230.00
2022-12-20T11:14:50.832Z,100219.47
2022-12-20T11:17:21.577Z,100206.38
2022-12-20T11:20:13.716Z,100206.34
2022-12-20T11:23:01.880Z,100204.53
2022-12-20T11:26:11.805Z,100203.63
2022-12-20T11:28:59.160Z,100200.09
2022-12-20T11:31:52.309Z,100217.59
2022-12-20T11:35:11.581Z,100214.06
2022-12-20T11:37:51.157Z,100208.81
2022-12-20T11:40:27.223Z,100210.53
2022-12-20T11:44:01.081Z,100206.16
2022-12-20T11:46:49.142Z,100205.25
2022-12-20T11:49:39.082Z,100203.47
2022-12-20T11:52:27.381Z,100203.44
2022-12-20T11:55:02.282Z,100206.06
2022-12-20T11:58:02.179Z,100209.50
2022-12-20T12:00:26.487Z,100206.84
2022-12-20T12:03:19.027Z,100205.09
2022-12-20T12:05:56.737Z,100205.09
2022-12-20T12:08:29.953Z,100200.66
2022-12-20T12:11:01.936Z,100197.09
2022-12-20T12:13:31.201Z,100199.66
2022-12-20T12:16:08.766Z,100201.38
2022-12-20T12:18:37.240Z,100200.47
2022-12-20T12:21:11.165Z,100189.94
2022-12-20T12:23:56.745Z,100188.13
2022-12-20T12:26:26.401Z,100179.34
2022-12-20T12:28:56.851Z,100172.28
2022-12-20T12:31:41.103Z,100169.63
2022-12-20T12:35:01.594Z,100168.69
2022-12-20T12:37:46.319Z,100162.53
2022-12-20T12:40:52.293Z,100162.53
2022-12-20T12:43:34.552Z,100158.97
2022-12-20T12:46:08.372Z,100149.34
2022-12-20T12:48:43.787Z,100151.03
2022-12-20T12:51:11.950Z,100160.56
2022-12-20T12:53:49.442Z,100150.91
2022-12-20T12:56:44.088Z,100168.34
2022-12-20T12:59:33.212Z,100167.50
2022-12-20T13:02:03.940Z,100162.19
2022-12-20T13:04:31.977Z,100159.56
2022-12-20T13:07:02.483Z,100161.31
2022-12-20T13:09:29.074Z,100161.28
2022-12-20T13:12:03.266Z,100163.06
2022-12-20T13:14:32.235Z,100163.03
2022-12-20T13:17:14.453Z,100160.38
2022-12-20T13:19:53.913Z,100163.84
2022-12-20T13:22:25.896Z,100160.31
2022-12-20T13:24:57.116Z,100162.06
2022-12-20T13:27:28.357Z,100153.31
2022-12-20T13:30:19.240Z,100149.81
2022-12-20T13:32:48.768Z,100148.00
2022-12-20T13:35:28.296Z,100153.25
2022-12-20T13:38:25.731Z,100158.56
2022-12-20T13:40:58.990Z,100153.25
2022-12-20T13:43:32.821Z,100151.47
2022-12-20T13:46:14.669Z,100148.91
2022-12-20T13:48:50.950Z,100163.75
2022-12-20T13:51:19.822Z,100155.88
2022-12-20T13:54:26.642Z,100165.47
2022-12-20T13:56:54.649Z,100167.19
2022-12-20T13:59:24.029Z,100161.13
2022-12-20T14:01:54.160Z,100166.44
2022-12-20T14:04:21.888Z,100167.31
2022-12-20T14:06:58.297Z,100164.75
2022-12-20T14:09:32.872Z,100156.81
2022-12-20T14:12:11.824Z,100169.09
2022-12-20T14:14:49.828Z,100161.22
2022-12-20T14:17:24.148Z,100163.84
2022-12-20T14:20:15.179Z,100170.00
2022-12-20T14:22:49.282Z,100167.38
2022-12-20T14:25:22.146Z,100168.28
2022-12-20T14:27:49.376Z,100166.53
2022-12-20T14:30:32.287Z,100176.22
2022-12-20T14:32:59.586Z,100168.34
2022-12-20T14:35:27.127Z,100173.59
2022-12-20T14:37:56.749Z,100169.22
2022-12-20T14:40:24.467Z,100169.22
2022-12-20T14:42:51.319Z,100174.41
2022-12-20T14:45:21.905Z,100163.03
2022-12-20T14:47:57.791Z,100154.22
2022-12-20T14:50:32.265Z,100155.97
2022-12-20T14:52:59.858Z,100154.19
2022-12-20T14:55:46.797Z,100154.16
2022-12-20T14:58:34.988Z,100146.28
2022-12-20T15:01:17.615Z,100168.94
2022-12-20T15:03:53.739Z,100158.44
2022-12-20T15:06:54.483Z,100151.31
2022-12-20T15:09:21.738Z,100153.88
2022-12-20T15:11:49.438Z,100163.41
2022-12-20T15:14:30.955Z,100151.09
2022-12-20T15:16:58.435Z,100150.16
2022-12-20T15:19:25.210Z,100139.59
2022-12-20T15:21:52.328Z,100146.47
2022-12-20T15:24:23.613Z,100135.03
2022-12-20T15:26:50.475Z,100140.22
2022-12-20T15:29:27.884Z,100137.56
2022-12-20T15:32:13.575Z,100135.78
2022-12-20T15:34:40.312Z,100134.88
2022-12-20T15:37:07.869Z,100129.63
2022-12-20T15:39:37.385Z,100127.84
2022-12-20T15:42:05.105Z,100130.41
2022-12-20T15:44:33.443Z,100133.03
2022-12-20T15:47:00.176Z,100133.88
2022-12-20T15:49:30.462Z,100132.97
2022-12-20T15:51:57.341Z,100134.69
2022-12-20T15:54:31.564Z,100124.13
2022-12-20T15:57:03.107Z,100136.38
2022-12-20T16:02:25.591Z,100119.66
2022-12-20T16:04:54.045Z,100117.91
2022-12-20T16:07:21.173Z,100128.41
2022-12-20T16:09:47.914Z,100121.44
2022-12-20T16:12:28.571Z,100120.56
2022-12-20T16:14:55.440Z,100117.03
2022-12-20T16:17:22.271Z,100117.94
2022-12-20T16:19:48.972Z,100115.38
2022-12-20T16:22:18.472Z,100114.53
2022-12-20T16:24:46.115Z,100118.06
2022-12-20T16:27:12.833Z,100119.84
2022-12-20T16:29:39.513Z,100114.66
2022-12-20T16:32:22.161Z,100110.25
2022-12-20T16:34:50.169Z,100115.53
2022-12-20T16:37:17.208Z,100104.16
2022-12-20T16:39:43.869Z,100105.06
2022-12-20T16:42:22.246Z,100103.34
2022-12-20T16:44:53.895Z,100102.44
2022-12-20T16:47:20.697Z,100101.56
2022-12-20T16:49:52.135Z,100098.94
2022-12-20T16:52:22.026Z,100095.41
2022-12-20T16:54:49.710Z,100091.06
2022-12-20T16:57:16.391Z,100088.38
2022-12-20T16:59:43.083Z,100088.34
2022-12-20T17:02:30.255Z,100092.72
2022-12-20T17:04:57.300Z,100094.44
2022-12-20T17:07:24.195Z,100096.19
2022-12-20T17:09:51.221Z,100084.78
2022-12-20T17:12:20.750Z,100087.41
2022-12-20T17:14:47.914Z,100085.69
2022-12-20T17:17:15.378Z,100085.69
2022-12-20T17:19:42.223Z,100079.53
2022-12-20T17:24:56.457Z,100075.19
2022-12-20T17:27:23.232Z,100083.94
2022-12-20T17:29:50.802Z,100067.31
2022-12-20T17:32:25.516Z,100072.56
2022-12-20T17:34:52.940Z,100070.84
2022-12-20T17:37:21.094Z,100070.00
2022-12-20T17:39:48.087Z,100068.25
2022-12-20T17:42:15.512Z,100070.00
2022-12-20T17:44:42.745Z,100059.47
2022-12-20T17:47:09.509Z,100063.00
2022-12-20T17:49:36.170Z,100064.75
2022-12-20T17:52:02.867Z,100070.81
2022-12-20T17:54:35.115Z,100075.19
2022-12-20T17:57:05.580Z,100073.44
2022-12-20T17:59:32.251Z,100085.69
2022-12-20T18:01:59.296Z,100076.91
2022-12-20T18:04:26.767Z,100076.03
2022-12-20T18:06:53.634Z,100068.16
2022-12-20T18:09:21.744Z,100062.91
2022-12-20T18:11:49.608Z,100055.94
2022-12-20T18:14:17.118Z,100048.06
2022-12-20T18:16:44.260Z,100043.72
2022-12-20T18:19:18.652Z,100052.47
2022-12-20T18:21:45.678Z,100043.72
2022-12-20T18:24:16.620Z,100036.72
2022-12-20T18:26:46.059Z,100042.88
2022-12-20T18:29:18.021Z,100054.31
2022-12-20T18:31:44.806Z,100049.00
2022-12-20T18:34:11.530Z,100038.53
2022-12-20T18:36:38.450Z,100035.06
2022-12-20T18:39:07.206Z,100028.97
2022-12-20T18:41:35.282Z,100022.84
2022-12-20T18:44:04.264Z,100028.03
2022-12-20T18:46:31.644Z,100035.06
2022-12-20T18:49:00.539Z,100026.28
2022-12-20T18:51:29.999Z,100020.16
2022-12-20T18:53:58.447Z,100020.97
2022-12-20T18:56:28.844Z,100020.03
2022-12-20T18:58:57.405Z,100014.75
2022-12-20T19:01:26.958Z,100019.91
2022-12-20T19:03:54.775Z,100021.69
2022-12-20T19:06:23.544Z,100017.22
2022-12-20T19:08:50.236Z,100019.84
2022-12-20T19:11:22.359Z,100006.72
2022-12-20T19:13:50.124Z,100004.09
2022-12-20T19:16:19.897Z,99999.69
2022-12-20T19:18:47.773Z,100005.84
2022-12-20T19:21:15.972Z,100000.53
2022-12-20T19:23:45.334Z,99998.75
2022-12-20T19:26:14.215Z,100001.38
2022-12-20T19:28:42.046Z,100000.50
2022-12-20T19:31:21.217Z,99997.88
2022-12-20T19:33:49.546Z,99994.41
2022-12-20T19:36:18.808Z,99994.41
2022-12-20T19:38:47.914Z,99987.38
2022-12-20T19:41:15.041Z,99989.13
2022-12-20T19:43:42.080Z,99985.63
2022-12-20T19:46:09.896Z,99983.00
2022-12-20T19:48:37.430Z,99987.38
2022-12-20T19:51:10.250Z,99984.75
2022-12-20T19:53:42.224Z,99986.47
2022-12-20T19:56:09.870Z,99987.38
2022-12-20T19:58:37.918Z,99982.13
2022-12-20T20:01:06.140Z,99984.75
2022-12-20T20:03:33.328Z,99979.50
2022-12-20T20:06:02.713Z,99987.31
2022-12-20T20:08:29.497Z,99980.31
2022-12-20T20:11:01.434Z,99975.91
2022-12-20T20:13:30.910Z,99979.44
2022-12-20T20:16:03.290Z,99976.75
2022-12-20T20:18:33.206Z,99976.75
2022-12-20T20:20:59.880Z,99976.75
2022-12-20T20:23:27.256Z,99973.28
2022-12-20T20:26:00.047Z,99968.94
2022-12-20T20:28:32.510Z,99961.06
2022-12-20T20:31:01.009Z,99962.81
2022-12-20T20:33:28.068Z,99965.44
2022-12-20T20:36:01.432Z,99956.66
2022-12-20T20:38:30.376Z,99952.25
2022-12-20T20:40:57.862Z,99956.59
2022-12-20T20:43:25.183Z,99957.50
2022-12-20T20:45:52.839Z,99951.31
2022-12-20T20:48:19.747Z,99951.28
2022-12-20T20:50:46.808Z,99945.13
2022-12-20T20:53:14.249Z,99949.47
2022-12-20T20:55:41.157Z,99941.56
2022-12-20T20:58:07.831Z,99945.00
2022-12-20T21:00:35.080Z,99936.22
2022-12-20T21:03:01.950Z,99930.97
2022-12-20T21:06:07.485Z,99936.13
2022-12-20T21:08:16.271Z,99937.88
2022-12-20T21:10:44.817Z,99934.34
2022-12-20T21:13:12.186Z,99930.81
2022-12-20T21:15:40.855Z,99933.41
2022-12-20T21:18:07.641Z,99924.66
2022-12-20T21:20:34.329Z,99922.00
2022-12-20T21:23:01.614Z,99916.69
2022-12-20T21:25:28.678Z,99924.53
2022-12-20T21:27:56.562Z,99916.66
2022-12-20T21:30:24.490Z,99923.63
2022-12-20T21:32:51.465Z,99915.75
2022-12-20T21:35:18.215Z,99919.22
2022-12-20T21:37:45.704Z,99913.09
2022-12-20T21:40:12.794Z,99913.94
2022-12-20T21:42:39.479Z,99913.09
2022-12-20T21:45:06.783Z,99902.56
2022-12-20T21:47:35.814Z,99892.06
2022-12-20T21:50:02.467Z,99892.91
2022-12-20T21:52:29.137Z,99897.31
2022-12-20T21:54:55.821Z,99886.81
2022-12-20T21:57:22.488Z,99889.38
2022-12-20T21:59:49.198Z,99886.81
2022-12-20T22:02:16.083Z,99886.75
2022-12-20T22:04:42.869Z,99891.16
2022-12-20T22:07:09.559Z,99888.53
2022-12-20T22:09:36.264Z,99876.19
2022-12-20T22:12:02.941Z,99877.94
2022-12-20T22:14:29.605Z,99876.16
2022-12-20T22:16:56.402Z,99880.41
2022-12-20T22:19:23.234Z,99874.31
2022-12-20T22:21:55.770Z,99875.16
2022-12-20T22:24:24.535Z,99875.06
2022-12-20T22:26:51.179Z,99877.66
2022-12-20T22:29:17.838Z,99873.31
2022-12-20T22:31:44.672Z,99864.50
2022-12-20T22:34:11.709Z,99862.78
2022-12-20T22:36:38.505Z,99861.00
2022-12-20T22:39:05.343Z,99862.78
2022-12-20T22:41:36.637Z,99865.34
2022-12-20T22:44:03.891Z,99861.78
2022-12-20T22:46:31.056Z,99849.56
2022-12-20T22:48:58.953Z,99854.75
2022-12-20T22:51:27.656Z,99855.56
2022-12-20T22:53:54.668Z,99851.19
2022-12-20T22:56:21.924Z,99846.78
2022-12-20T22:58:49.240Z,99846.78
2022-12-20T23:01:18.499Z,99840.66
2022-12-20T23:03:45.759Z,99837.16
2022-12-20T23:06:15.397Z,99838.03
2022-12-20T23:08:42.807Z,99838.78
2022-12-20T23:11:46.038Z,99838.78
2022-12-20T23:14:36.321Z,99836.16
2022-12-20T23:17:04.357Z,99830.84
2022-12-20T23:19:50.576Z,99826.50
2022-12-20T23:22:36.404Z,99829.13
2022-12-20T23:25:13.979Z,99819.47
2022-12-20T23:27:42.686Z,99822.94
2022-12-20T23:30:11.579Z,99822.94
2022-12-20T23:32:38.281Z,99820.31
2022-12-20T23:35:12.120Z,99808.88
2022-12-20T23:37:39.600Z,99817.59
2022-12-20T23:40:07.653Z,99812.28
2022-12-20T23:42:34.305Z,99806.16
2022-12-20T23:45:00.942Z,99813.97
2022-12-20T23:47:27.740Z,99804.31
2022-12-20T23:49:54.377Z,99799.06
2022-12-20T23:52:21.030Z,99803.44
2022-12-20T23:54:47.683Z,99791.19
2022-12-20T23:57:14.395Z,99804.28
2022-12-20T23:59:41.093Z,99794.63
